Terminal Aerodrome Forecast
Issued by NWS Newport/Morehead City, NC

Home | Current Version | Previous Version | Graphics & Text | Print | Product List | Glossary On
Versions: 1 2 3 4 5 6 7 8 9 10 11 12 13 14 15 16 17 18 19 20 21
000
FTUS42 KMHX 141749
TAFEWN
TAF
KEWN 141749Z 1418/1518 VRB03KT P6SM SCT025
     FM141900 VRB04KT P6SM VCTS BKN035CB
     FM150000 17005KT P6SM BKN035
     FM150800 00000KT 2SM BR BKN003
     FM151400 VRB03KT P6SM BKN035=

USA.gov is the U.S. government's official web portal to all federal, state and local government web resources and services.